Time;durP1;ratioP1;P1;durP2;ratioP2;P2;SDS_P1;SDS_P2;PMS_P1;PMS_P2;Temp;Humidity;BMP_temperature;BMP_pressure;BME280_temperature;BME280_humidity;BME280_pressure;Samples;Min_cycle;Max_cycle;Signal;HPM_P1;HPM_P2
2021/10/15 00:01:01;;;;;;;6.57;4.80;;;;;;;;;;5039394;28;20021;-57
2021/10/15 00:06:27;;;;;;;7.05;5.85;;;;;;;;;;5035918;28;20034;-56
2021/10/15 00:09:12;;;;;;;7.93;5.72;;;;;;;;;;5038281;28;20032;-57
2021/10/15 00:11:53;;;;;;;8.05;5.28;;;;;;;;;;5038810;28;20022;-57
2021/10/15 00:14:20;;;;;;;7.50;5.90;;;;;;;;;;5039231;28;20021;-57
2021/10/15 00:17:25;;;;;;;7.68;4.72;;;;;;;;;;5037345;28;20060;-57
2021/10/15 00:20:24;;;;;;;7.47;5.65;;;;;;;;;;5036935;28;20033;-57
2021/10/15 00:22:54;;;;;;;8.18;5.65;;;;;;;;;;5037846;28;20052;-57
2021/10/15 00:25:49;;;;;;;7.43;5.82;;;;;;;;;;5036135;28;20029;-57
2021/10/15 00:28:26;;;;;;;6.32;5.45;;;;;;;;;;5016160;28;20053;-57
2021/10/15 00:31:06;;;;;;;5.88;5.25;;;;;;;;;;5035785;28;20029;-57
2021/10/15 00:33:51;;;;;;;7.30;5.28;;;;;;;;;;5015318;28;20058;-57
2021/10/15 00:36:29;;;;;;;9.77;6.60;;;;;;;;;;5015630;28;20034;-57
2021/10/15 00:39:17;;;;;;;8.65;5.63;;;;;;;;;;5015788;28;20026;-57
2021/10/15 00:42:04;;;;;;;11.60;6.50;;;;;;;;;;5015425;28;20084;-58
2021/10/15 00:44:40;;;;;;;8.27;6.15;;;;;;;;;;5016103;28;20026;-58
2021/10/15 00:47:16;;;;;;;7.00;5.97;;;;;;;;;;5015370;28;20022;-57
2021/10/15 00:49:49;;;;;;;10.20;5.97;;;;;;;;;;5015682;28;20045;-57
2021/10/15 00:52:36;;;;;;;9.93;6.57;;;;;;;;;;5014820;28;20137;-57
2021/10/15 00:55:37;;;;;;;8.13;6.63;;;;;;;;;;5015576;28;20038;-57
2021/10/15 00:58:27;;;;;;;8.15;5.60;;;;;;;;;;5029168;28;20116;-57
2021/10/15 01:01:00;;;;;;;8.45;5.90;;;;;;;;;;5014807;28;20030;-57
2021/10/15 01:04:09;;;;;;;;;;;;;;;;;;;;;
2021/10/15 01:06:49;;;;;;;9.05;5.63;;;;;;;;;;5023233;28;20201;-58
2021/10/15 01:09:27;;;;;;;7.70;5.57;;;;;;;;;;5016083;28;20030;-58
2021/10/15 01:15:03;;;;;;;5.63;5.03;;;;;;;;;;5014743;28;20052;-58
2021/10/15 01:17:35;;;;;;;6.72;6.03;;;;;;;;;;5015484;28;20022;-58
2021/10/15 01:20:37;;;;;;;7.55;6.25;;;;;;;;;;5015836;28;20065;-58
2021/10/15 01:26:29;;;;;;;8.85;6.03;;;;;;;;;;5015050;28;20526;-57
2021/10/15 01:29:14;;;;;;;6.15;5.28;;;;;;;;;;5013179;28;20101;-58
2021/10/15 01:35:19;;;;;;;6.32;5.38;;;;;;;;;;5034800;28;20059;-57
2021/10/15 01:41:24;;;;;;;7.95;5.72;;;;;;;;;;4996150;28;20027;-57
2021/10/15 01:44:18;;;;;;;7.10;6.03;;;;;;;;;;4972642;28;20459;-57
2021/10/15 01:46:47;;;;;;;6.50;5.10;;;;;;;;;;5036033;28;20045;-58
2021/10/15 01:49:32;;;;;;;6.35;5.47;;;;;;;;;;5037771;28;20482;-57
2021/10/15 01:52:49;;;;;;;;;;;;;;;;;;;;;
2021/10/15 01:55:36;;;;;;;7.85;5.53;;;;;;;;;;5037177;28;20043;-57
2021/10/15 01:58:17;;;;;;;5.72;4.60;;;;;;;;;;5036140;28;20029;-58
2021/10/15 02:04:07;;;;;;;8.52;6.50;;;;;;;;;;5030645;28;20049;-57
2021/10/15 02:06:43;;;;;;;6.25;5.03;;;;;;;;;;5037857;28;20018;-58
2021/10/15 02:12:42;;;;;;;6.22;5.15;;;;;;;;;;4995986;28;20488;-57
2021/10/15 02:15:28;;;;;;;7.72;5.50;;;;;;;;;;5035308;28;20041;-57
2021/10/15 02:18:17;;;;;;;8.38;5.40;;;;;;;;;;5037262;28;20036;-57
2021/10/15 02:21:01;;;;;;;6.03;5.38;;;;;;;;;;5037114;28;20033;-58
2021/10/15 02:26:38;;;;;;;7.47;5.20;;;;;;;;;;5016825;28;20559;-57
2021/10/15 02:32:21;;;;;;;9.43;4.68;;;;;;;;;;5037764;28;20036;-57
2021/10/15 02:35:10;;;;;;;;;;;;;;;;;;;;;
2021/10/15 02:38:05;;;;;;;7.78;5.60;;;;;;;;;;5037473;28;20128;-58
2021/10/15 02:43:33;;;;;;;8.65;5.57;;;;;;;;;;5034392;28;20043;-57
2021/10/15 02:46:27;;;;;;;6.95;5.20;;;;;;;;;;5037553;28;20056;-57
2021/10/15 02:49:06;;;;;;;9.60;6.40;;;;;;;;;;5035634;28;20117;-58
2021/10/15 02:51:48;;;;;;;6.22;5.13;;;;;;;;;;5038486;28;20029;-57
2021/10/15 02:54:14;;;;;;;7.05;4.32;;;;;;;;;;5038918;28;20421;-57
2021/10/15 02:59:50;;;;;;;10.13;4.78;;;;;;;;;;5034931;28;20052;-57
2021/10/15 03:02:52;;;;;;;11.32;5.85;;;;;;;;;;5038390;28;20063;-57
2021/10/15 03:05:30;;;;;;;6.10;5.50;;;;;;;;;;4996768;28;20034;-58
2021/10/15 03:08:05;;;;;;;5.82;4.45;;;;;;;;;;4996267;28;20089;-57
2021/10/15 03:11:01;;;;;;;7.53;4.97;;;;;;;;;;5031035;28;20060;-57
2021/10/15 03:16:29;;;;;;;8.60;6.20;;;;;;;;;;5033369;28;20523;-57
2021/10/15 03:19:05;;;;;;;7.20;4.65;;;;;;;;;;5035924;28;20037;-57
2021/10/15 03:22:00;;;;;;;7.22;5.57;;;;;;;;;;5037744;28;20064;-57
2021/10/15 03:24:45;;;;;;;7.30;5.40;;;;;;;;;;5035783;28;20383;-57
2021/10/15 03:27:30;;;;;;;7.03;5.70;;;;;;;;;;5036419;28;20053;-58
2021/10/15 03:30:08;;;;;;;8.95;7.32;;;;;;;;;;5036784;28;20038;-58
2021/10/15 03:33:06;;;;;;;9.20;7.45;;;;;;;;;;5044018;28;20494;-57
2021/10/15 03:38:38;;;;;;;7.35;6.18;;;;;;;;;;4989917;28;20038;-57
2021/10/15 03:41:33;;;;;;;8.85;7.30;;;;;;;;;;4991320;28;20548;-57
2021/10/15 03:44:08;;;;;;;7.72;5.43;;;;;;;;;;5011902;28;20026;-57
2021/10/15 03:46:57;;;;;;;6.18;5.57;;;;;;;;;;5012478;28;20030;-57
2021/10/15 03:49:39;;;;;;;7.35;5.93;;;;;;;;;;5009026;28;20088;-56
2021/10/15 03:52:20;;;;;;;6.00;4.78;;;;;;;;;;5011854;28;20498;-57
2021/10/15 04:03:58;;;;;;;7.57;5.38;;;;;;;;;;4968779;28;20049;-57
2021/10/15 04:12:21;;;;;;;6.57;5.20;;;;;;;;;;5012717;28;20176;-57
2021/10/15 04:15:33;;;;;;;7.95;4.93;;;;;;;;;;5011996;28;20033;-56
2021/10/15 04:21:15;;;;;;;8.40;5.63;;;;;;;;;;5006854;28;20108;-57
2021/10/15 04:24:00;;;;;;;;;;;;;;;;;;;;;
2021/10/15 04:29:14;;;;;;;8.00;4.78;;;;;;;;;;5012687;28;20041;-57
2021/10/15 04:35:07;;;;;;;5.30;4.15;;;;;;;;;;5029836;28;20142;-57
2021/10/15 04:37:51;;;;;;;5.72;4.30;;;;;;;;;;5031466;28;20033;-57
2021/10/15 04:40:33;;;;;;;7.60;6.07;;;;;;;;;;5031314;28;20463;-57
2021/10/15 04:49:39;;;;;;;6.95;4.25;;;;;;;;;;5008453;28;20045;-57
2021/10/15 04:55:12;;;;;;;7.53;4.78;;;;;;;;;;5031712;28;20037;-57
2021/10/15 04:57:48;;;;;;;5.63;4.60;;;;;;;;;;5031775;28;20029;-57
2021/10/15 05:00:27;;;;;;;7.38;5.15;;;;;;;;;;5036557;28;20037;-57
2021/10/15 05:05:58;;;;;;;6.38;4.70;;;;;;;;;;4989693;28;20085;-57
2021/10/15 05:08:38;;;;;;;8.23;4.80;;;;;;;;;;5023296;28;20042;-57
2021/10/15 05:11:20;;;;;;;6.50;5.18;;;;;;;;;;5030728;28;20156;-57
2021/10/15 05:14:18;;;;;;;8.40;5.88;;;;;;;;;;5035116;28;20309;-57
2021/10/15 05:20:15;;;;;;;9.77;6.90;;;;;;;;;;5014160;28;20033;-57
2021/10/15 05:26:34;;;;;;;6.50;4.90;;;;;;;;;;5013083;28;20104;-57
2021/10/15 05:29:47;;;;;;;6.65;4.32;;;;;;;;;;5012770;28;20479;-57
2021/10/15 05:32:18;;;;;;;9.38;6.05;;;;;;;;;;5011535;28;20112;-57
2021/10/15 05:35:31;;;;;;;7.70;6.25;;;;;;;;;;5015102;28;20042;-57
2021/10/15 05:41:11;;;;;;;9.02;5.80;;;;;;;;;;5015791;28;20034;-57
2021/10/15 05:43:40;;;;;;;6.13;5.07;;;;;;;;;;5024758;28;20093;-57
2021/10/15 05:46:43;;;;;;;8.85;5.15;;;;;;;;;;5035092;28;20032;-57
2021/10/15 05:49:25;;;;;;;8.07;5.55;;;;;;;;;;5035615;28;20028;-57
2021/10/15 05:52:11;;;;;;;6.38;4.53;;;;;;;;;;5034258;28;20033;-57
2021/10/15 06:00:22;;;;;;;6.25;4.57;;;;;;;;;;5032753;28;20087;-57
2021/10/15 06:03:09;;;;;;;8.05;5.07;;;;;;;;;;5032827;28;20420;-57
2021/10/15 06:15:02;;;;;;;8.55;4.22;;;;;;;;;;4992332;28;20124;-58
2021/10/15 06:20:42;;;;;;;7.00;5.13;;;;;;;;;;5030235;28;20133;-57
2021/10/15 06:23:28;;;;;;;5.00;3.80;;;;;;;;;;5025730;28;20068;-57
2021/10/15 06:26:10;;;;;;;8.10;5.57;;;;;;;;;;5034566;28;20044;-57
2021/10/15 06:29:02;;;;;;;4.75;3.63;;;;;;;;;;5033918;28;20037;-57
2021/10/15 06:34:54;;;;;;;8.15;5.38;;;;;;;;;;5009513;28;20080;-57
2021/10/15 06:37:33;;;;;;;;;;;;;;;;;;;;;
2021/10/15 06:45:59;;;;;;;8.80;5.95;;;;;;;;;;5033596;28;20043;-59
2021/10/15 06:48:31;;;;;;;7.55;5.40;;;;;;;;;;5033665;28;20026;-59
2021/10/15 06:54:08;;;;;;;6.85;4.95;;;;;;;;;;4999751;28;20026;-59
2021/10/15 06:57:19;;;;;;;;;;;;;;;;;;;;;
2021/10/15 07:00:09;;;;;;;6.95;5.65;;;;;;;;;;5032318;28;20088;-57
2021/10/15 07:02:41;;;;;;;8.73;4.55;;;;;;;;;;5032299;28;20119;-58
2021/10/15 07:05:17;;;;;;;7.30;4.95;;;;;;;;;;5033655;28;20030;-58
2021/10/15 07:08:05;;;;;;;6.25;5.22;;;;;;;;;;5031581;28;20038;-59
2021/10/15 07:14:27;;;;;;;;;;;;;;;;;;;;;
2021/10/15 07:16:56;;;;;;;11.90;4.75;;;;;;;;;;5032650;28;20738;-59
2021/10/15 07:19:30;;;;;;;5.95;4.72;;;;;;;;;;5033736;28;20031;-58
2021/10/15 07:22:02;;;;;;;6.55;5.03;;;;;;;;;;5032466;28;20521;-59
2021/10/15 07:24:37;;;;;;;6.15;5.30;;;;;;;;;;5015071;28;20043;-58
2021/10/15 07:27:35;;;;;;;6.55;5.13;;;;;;;;;;5031239;28;20033;-58
2021/10/15 07:30:20;;;;;;;6.47;5.88;;;;;;;;;;5032153;28;20061;-59
2021/10/15 07:32:55;;;;;;;7.75;5.78;;;;;;;;;;5028467;28;20042;-58
2021/10/15 07:36:25;;;;;;;9.27;6.28;;;;;;;;;;5011759;28;20694;-59
2021/10/15 07:38:43;;;;;;;10.23;5.35;;;;;;;;;;5001324;28;20034;-58
2021/10/15 07:41:30;;;;;;;7.90;5.88;;;;;;;;;;5013048;28;20431;-59
2021/10/15 07:44:12;;;;;;;10.32;5.90;;;;;;;;;;5012874;28;20439;-58
2021/10/15 07:46:44;;;;;;;7.32;5.78;;;;;;;;;;5013204;28;20049;-59
2021/10/15 07:49:39;;;;;;;8.02;5.95;;;;;;;;;;5013473;28;20109;-59
2021/10/15 07:52:25;;;;;;;5.68;4.25;;;;;;;;;;5012610;28;20034;-59
2021/10/15 07:55:10;;;;;;;6.25;5.65;;;;;;;;;;5014075;28;20033;-58
2021/10/15 07:57:42;;;;;;;5.15;4.47;;;;;;;;;;5013193;28;20065;-59
2021/10/15 08:03:42;;;;;;;7.78;5.38;;;;;;;;;;4991020;28;20089;-58
2021/10/15 08:12:31;;;;;;;10.98;5.85;;;;;;;;;;5009557;28;20332;-59
2021/10/15 08:15:29;;;;;;;6.30;4.88;;;;;;;;;;5020428;28;20479;-59
2021/10/15 08:21:33;;;;;;;;;;;;;;;;;;;;;
2021/10/15 08:27:21;;;;;;;7.78;6.10;;;;;;;;;;5102717;28;20028;-57
2021/10/15 08:30:10;;;;;;;9.55;6.30;;;;;;;;;;5106766;28;20036;-57
2021/10/15 08:33:02;;;;;;;8.23;6.20;;;;;;;;;;5109746;28;20055;-56
2021/10/15 08:38:46;;;;;;;8.52;5.80;;;;;;;;;;5100227;28;20085;-57
2021/10/15 08:41:41;;;;;;;8.13;5.38;;;;;;;;;;5099083;28;20036;-57
2021/10/15 08:44:16;;;;;;;6.22;5.43;;;;;;;;;;5046264;28;20029;-57
2021/10/15 08:46:57;;;;;;;9.80;6.40;;;;;;;;;;5106540;28;20048;-57
2021/10/15 08:49:44;;;;;;;8.63;5.13;;;;;;;;;;5109492;28;20029;-57
2021/10/15 08:52:16;;;;;;;5.50;4.35;;;;;;;;;;5102576;28;20031;-57
2021/10/15 08:57:56;;;;;;;8.98;4.68;;;;;;;;;;5082247;28;20420;-57
2021/10/15 09:00:33;;;;;;;6.38;4.75;;;;;;;;;;5071344;28;20074;-56
2021/10/15 09:03:18;;;;;;;6.72;5.30;;;;;;;;;;5089265;28;20028;-55
2021/10/15 09:06:15;;;;;;;6.38;5.07;;;;;;;;;;5070745;28;20051;-57
2021/10/15 09:09:16;;;;;;;12.98;5.30;;;;;;;;;;5064954;28;20029;-57
2021/10/15 09:11:59;;;;;;;9.35;5.50;;;;;;;;;;5018097;28;20112;-57
2021/10/15 09:17:54;;;;;;;5.68;4.00;;;;;;;;;;5068684;28;20430;-56
2021/10/15 09:20:27;;;;;;;9.25;5.63;;;;;;;;;;5088509;28;20028;-57
2021/10/15 09:23:40;;;;;;;6.93;5.57;;;;;;;;;;5070036;28;20545;-57
2021/10/15 09:29:20;;;;;;;7.63;4.90;;;;;;;;;;4975609;28;20105;-57
2021/10/15 09:32:24;;;;;;;6.30;4.72;;;;;;;;;;4958186;28;20074;-57
2021/10/15 09:35:18;;;;;;;12.68;5.10;;;;;;;;;;4897862;29;20458;-57
2021/10/15 09:38:15;;;;;;;8.50;4.63;;;;;;;;;;5019398;28;20045;-57
2021/10/15 09:40:52;;;;;;;6.78;4.68;;;;;;;;;;5055357;28;20108;-56
2021/10/15 09:43:40;;;;;;;12.68;5.00;;;;;;;;;;5032259;28;20033;-57
2021/10/15 09:46:36;;;;;;;5.63;4.57;;;;;;;;;;5040337;28;20079;-57
2021/10/15 09:49:19;;;;;;;7.05;4.75;;;;;;;;;;5046816;28;20534;-57
2021/10/15 09:51:58;;;;;;;6.35;4.55;;;;;;;;;;5035990;28;20064;-57
2021/10/15 09:54:25;;;;;;;8.90;6.15;;;;;;;;;;5054165;28;20063;-57
2021/10/15 09:57:06;;;;;;;5.35;4.57;;;;;;;;;;5054362;28;20109;-57
2021/10/15 09:59:42;;;;;;;6.03;5.43;;;;;;;;;;5054687;28;20032;-57
2021/10/15 10:08:10;;;;;;;5.40;4.90;;;;;;;;;;5050934;28;20085;-57
2021/10/15 10:10:42;;;;;;;6.88;5.22;;;;;;;;;;5036499;28;20526;-57
2021/10/15 10:13:35;;;;;;;6.05;4.53;;;;;;;;;;5054798;28;20467;-57
2021/10/15 10:16:28;;;;;;;5.57;4.32;;;;;;;;;;5051298;28;20049;-57
2021/10/15 10:19:34;;;;;;;5.47;4.57;;;;;;;;;;5053520;28;20041;-57
2021/10/15 10:22:31;;;;;;;4.93;4.20;;;;;;;;;;5053950;28;20421;-56
2021/10/15 10:25:19;;;;;;;7.43;4.47;;;;;;;;;;5050054;28;20033;-57
2021/10/15 10:28:02;;;;;;;;;;;;;;;;;;;;;
2021/10/15 10:36:40;;;;;;;7.03;4.53;;;;;;;;;;5052939;28;20045;-58
2021/10/15 10:39:22;;;;;;;7.82;4.78;;;;;;;;;;5053230;28;20108;-57
2021/10/15 10:42:12;;;;;;;4.72;4.05;;;;;;;;;;5053342;28;20021;-57
2021/10/15 10:48:09;;;;;;;6.35;4.07;;;;;;;;;;5046736;28;20033;-57
2021/10/15 10:51:03;;;;;;;9.38;4.85;;;;;;;;;;5050850;28;20441;-55
2021/10/15 10:53:57;;;;;;;15.32;4.88;;;;;;;;;;5051134;28;20083;-58
2021/10/15 10:57:24;;;;;;;5.10;4.47;;;;;;;;;;5052972;28;20036;-57
2021/10/15 10:59:43;;;;;;;13.45;5.28;;;;;;;;;;5047198;28;20029;-57
2021/10/15 11:02:33;;;;;;;6.70;5.05;;;;;;;;;;5051941;28;20478;-57
2021/10/15 11:11:18;;;;;;;;;;;;;;;;;;5010755;28;20053;-57
2021/10/15 11:13:53;;;;;;;7.40;5.22;;;;;;;;;;5045431;28;19905;-57
2021/10/15 11:16:39;;;;;;;9.98;5.60;;;;;;;;;;5053015;28;20036;-57
2021/10/15 11:19:28;;;;;;;;;;;;;;;;;;;;;
2021/10/15 11:22:03;;;;;;;8.85;6.43;;;;;;;;;;5050739;28;20474;-57
2021/10/15 11:24:35;;;;;;;6.03;4.10;;;;;;;;;;5051308;28;20051;-57
2021/10/15 11:33:26;;;;;;;7.97;5.43;;;;;;;;;;5069278;28;20029;-57
2021/10/15 11:36:05;;;;;;;4.57;4.13;;;;;;;;;;5071754;28;20101;-57
2021/10/15 11:39:01;;;;;;;;;;;;;;;;;;;;;
2021/10/15 11:41:40;;;;;;;9.25;5.18;;;;;;;;;;5054521;28;20043;-57
2021/10/15 11:47:31;;;;;;;5.47;4.43;;;;;;;;;;5061813;28;20128;-57
2021/10/15 11:50:03;;;;;;;6.32;5.70;;;;;;;;;;5087988;28;20127;-57
2021/10/15 11:53:10;;;;;;;7.15;4.75;;;;;;;;;;5088146;28;20021;-57
2021/10/15 11:56:06;;;;;;;7.22;4.43;;;;;;;;;;5072782;28;20028;-57
2021/10/15 11:59:00;;;;;;;5.05;4.30;;;;;;;;;;5054026;28;20029;-57
2021/10/15 12:01:44;;;;;;;6.22;4.38;;;;;;;;;;5072749;28;20060;-57
2021/10/15 12:04:41;;;;;;;7.15;4.55;;;;;;;;;;5072851;28;20020;-57
2021/10/15 12:07:14;;;;;;;5.45;4.68;;;;;;;;;;5087053;28;20070;-58
2021/10/15 12:09:51;;;;;;;4.65;3.10;;;;;;;;;;5087515;28;20025;-57
2021/10/15 12:12:35;;;;;;;4.57;3.88;;;;;;;;;;5071630;28;20307;-57
2021/10/15 12:15:10;;;;;;;4.80;3.75;;;;;;;;;;5072625;28;20027;-57
2021/10/15 12:20:34;;;;;;;6.43;3.80;;;;;;;;;;5062577;28;20396;-57
2021/10/15 12:23:13;;;;;;;5.32;3.45;;;;;;;;;;5072549;28;20025;-58
2021/10/15 12:26:14;;;;;;;6.05;3.25;;;;;;;;;;5072274;28;20496;-57
2021/10/15 12:28:46;;;;;;;4.80;3.63;;;;;;;;;;5070356;28;20432;-57
2021/10/15 12:31:38;;;;;;;3.70;2.83;;;;;;;;;;5070696;28;20040;-57
2021/10/15 12:34:05;;;;;;;5.18;3.22;;;;;;;;;;5052279;28;20021;-57
2021/10/15 12:36:49;;;;;;;4.82;2.95;;;;;;;;;;5033866;28;20088;-57
2021/10/15 12:39:29;;;;;;;5.90;3.10;;;;;;;;;;5034616;28;20028;-57
2021/10/15 12:42:27;;;;;;;;;;;;;;;;;;;;;
2021/10/15 12:48:05;;;;;;;3.42;2.70;;;;;;;;;;5040439;28;20033;-57
2021/10/15 12:50:42;;;;;;;4.50;3.13;;;;;;;;;;5052190;28;20096;-58
2021/10/15 12:53:35;;;;;;;6.35;3.33;;;;;;;;;;5051886;28;20029;-57
2021/10/15 12:56:25;;;;;;;4.20;3.05;;;;;;;;;;5051165;28;20064;-58
2021/10/15 12:59:04;;;;;;;3.70;2.63;;;;;;;;;;5032388;28;20064;-57
2021/10/15 13:02:05;;;;;;;4.53;3.15;;;;;;;;;;5051133;28;20056;-57
2021/10/15 13:04:57;;;;;;;6.28;3.50;;;;;;;;;;5053559;28;20063;-57
2021/10/15 13:07:52;;;;;;;6.97;3.00;;;;;;;;;;5014932;28;20511;-57
2021/10/15 13:10:38;;;;;;;3.92;3.15;;;;;;;;;;5032334;28;20076;-57
2021/10/15 13:13:32;;;;;;;3.88;3.15;;;;;;;;;;5054105;28;20033;-57
2021/10/15 13:16:28;;;;;;;5.20;3.40;;;;;;;;;;5035490;28;20022;-57
2021/10/15 13:19:09;;;;;;;5.00;3.25;;;;;;;;;;5036334;28;20056;-58
2021/10/15 13:21:58;;;;;;;4.43;2.70;;;;;;;;;;5036358;28;20167;-57
2021/10/15 13:24:37;;;;;;;4.05;3.15;;;;;;;;;;5036809;28;20428;-57
2021/10/15 13:27:26;;;;;;;;;;;;;;;;;;;;;
2021/10/15 13:30:16;;;;;;;4.60;3.15;;;;;;;;;;5054614;28;20394;-56
2021/10/15 13:32:48;;;;;;;5.63;3.33;;;;;;;;;;5067245;28;20111;-57
2021/10/15 13:35:33;;;;;;;3.72;2.30;;;;;;;;;;5080750;28;20172;-58
2021/10/15 13:38:17;;;;;;;4.25;2.80;;;;;;;;;;5073650;28;20501;-58
2021/10/15 13:52:10;;;;;;;5.85;3.28;;;;;;;;;;5074281;28;20500;-58
2021/10/15 13:54:42;;;;;;;5.80;3.30;;;;;;;;;;5074124;28;20029;-58
2021/10/15 13:57:56;;;;;;;;;;;;;;;;;;;;;
2021/10/15 14:00:47;;;;;;;6.25;3.35;;;;;;;;;;5073887;28;20387;-58
2021/10/15 14:10:04;;;;;;;;;;;;;;;;;;;;;
2021/10/15 14:12:42;;;;;;;3.92;3.22;;;;;;;;;;5069865;28;20037;-58
2021/10/15 14:15:30;;;;;;;5.65;2.67;;;;;;;;;;5071741;28;20183;-58
2021/10/15 14:18:16;;;;;;;;;;;;;;;;;;;;;
2021/10/15 14:20:57;;;;;;;3.70;2.95;;;;;;;;;;5087890;28;20017;-59
2021/10/15 14:23:48;;;;;;;;;;;;;;;;;;;;;
2021/10/15 14:29:29;;;;;;;4.72;2.97;;;;;;;;;;5074274;28;20082;-58
2021/10/15 14:32:17;;;;;;;4.18;2.95;;;;;;;;;;5074048;28;20073;-58
2021/10/15 14:35:14;;;;;;;;;;;;;;;;;;;;;
2021/10/15 14:40:45;;;;;;;3.75;2.80;;;;;;;;;;4972465;28;20077;-58
2021/10/15 14:43:20;;;;;;;3.45;2.28;;;;;;;;;;4972724;28;20034;-58
2021/10/15 14:46:07;;;;;;;3.80;2.75;;;;;;;;;;5026436;28;20091;-58
2021/10/15 14:51:57;;;;;;;5.35;3.10;;;;;;;;;;5073156;28;20509;-59
2021/10/15 14:54:42;;;;;;;4.40;2.70;;;;;;;;;;5051516;28;20056;-59
2021/10/15 14:57:17;;;;;;;6.43;3.08;;;;;;;;;;5072670;28;20029;-58
2021/10/15 14:59:55;;;;;;;4.95;2.75;;;;;;;;;;5071625;28;20052;-58
2021/10/15 15:02:40;;;;;;;3.90;2.70;;;;;;;;;;5064926;28;20060;-57
2021/10/15 15:05:32;;;;;;;4.50;2.85;;;;;;;;;;5048228;28;20449;-57
2021/10/15 15:08:16;;;;;;;7.22;1.98;;;;;;;;;;5052823;28;20033;-58
2021/10/15 15:13:53;;;;;;;2.53;1.52;;;;;;;;;;5053527;28;20103;-58
2021/10/15 15:19:30;;;;;;;3.88;1.50;;;;;;;;;;4988318;28;20031;-58
2021/10/15 15:25:34;;;;;;;4.45;1.55;;;;;;;;;;5016140;28;20029;-58
2021/10/15 15:28:19;;;;;;;2.25;1.50;;;;;;;;;;5052539;28;20516;-58
2021/10/15 15:31:01;;;;;;;4.18;1.65;;;;;;;;;;5072109;28;20025;-58
2021/10/15 15:36:46;;;;;;;3.10;1.65;;;;;;;;;;5049295;28;20510;-58
2021/10/15 15:45:46;;;;;;;1.85;1.15;;;;;;;;;;5072024;28;20040;-58
2021/10/15 15:57:51;;;;;;;3.25;1.45;;;;;;;;;;5067929;28;20037;-58
2021/10/15 16:00:23;;;;;;;3.80;1.67;;;;;;;;;;5072195;28;20035;-58
2021/10/15 16:03:14;;;;;;;4.40;1.80;;;;;;;;;;5086872;28;20082;-56
2021/10/15 16:06:33;;;;;;;2.60;1.48;;;;;;;;;;5072319;28;20024;-58
2021/10/15 16:09:07;;;;;;;2.65;1.58;;;;;;;;;;5071094;28;20040;-58
2021/10/15 16:11:43;;;;;;;3.22;1.60;;;;;;;;;;5086198;28;20473;-58
2021/10/15 16:17:13;;;;;;;;;;;;;;;;;;5070261;28;20135;-58
2021/10/15 16:22:58;;;;;;;2.58;1.42;;;;;;;;;;5071913;28;20132;-58
2021/10/15 16:25:47;;;;;;;3.30;1.58;;;;;;;;;;5071914;28;20068;-58
2021/10/15 16:28:31;;;;;;;;;;;;;;;;;;;;;
2021/10/15 16:37:48;;;;;;;2.38;1.38;;;;;;;;;;5050953;28;20077;-58
2021/10/15 16:40:43;;;;;;;;;;;;;;;;;;;;;
2021/10/15 16:43:20;;;;;;;1.65;0.93;;;;;;;;;;5055675;28;20029;-58
2021/10/15 16:45:55;;;;;;;4.82;1.40;;;;;;;;;;5055907;28;20111;-58
2021/10/15 16:48:54;;;;;;;2.45;1.50;;;;;;;;;;5054642;28;20104;-58
2021/10/15 16:51:46;;;;;;;4.57;2.03;;;;;;;;;;5055636;28;20076;-58
2021/10/15 16:54:31;;;;;;;2.05;1.13;;;;;;;;;;5055663;28;20029;-58
2021/10/15 16:57:16;;;;;;;2.67;1.27;;;;;;;;;;5053501;28;20041;-59
2021/10/15 17:00:03;;;;;;;2.88;1.30;;;;;;;;;;5055465;28;20028;-58
2021/10/15 17:02:41;;;;;;;3.60;1.40;;;;;;;;;;5055889;28;20024;-58
2021/10/15 17:05:16;;;;;;;3.35;1.77;;;;;;;;;;5055256;28;20482;-58
2021/10/15 17:07:50;;;;;;;2.67;1.70;;;;;;;;;;5048357;28;20041;-58
2021/10/15 17:10:37;;;;;;;2.10;1.15;;;;;;;;;;5055370;28;20021;-58
2021/10/15 17:13:14;;;;;;;2.72;1.30;;;;;;;;;;5054957;28;20020;-58
2021/10/15 17:15:50;;;;;;;2.60;1.42;;;;;;;;;;5036989;28;20029;-58
2021/10/15 17:18:29;;;;;;;1.80;1.20;;;;;;;;;;5053833;28;20037;-58
2021/10/15 17:21:03;;;;;;;5.32;1.77;;;;;;;;;;5054883;28;20600;-58
2021/10/15 17:23:38;;;;;;;4.13;1.70;;;;;;;;;;5055442;28;20029;-58
2021/10/15 17:26:14;;;;;;;2.75;1.60;;;;;;;;;;5054470;28;20119;-58
2021/10/15 17:31:57;;;;;;;3.28;1.50;;;;;;;;;;5038505;28;20381;-58
2021/10/15 17:40:27;;;;;;;2.50;1.52;;;;;;;;;;5018142;28;20111;-58
2021/10/15 17:42:59;;;;;;;3.15;1.85;;;;;;;;;;5074590;28;20023;-58
2021/10/15 17:45:31;;;;;;;2.72;1.65;;;;;;;;;;5074489;28;20027;-57
2021/10/15 17:48:21;;;;;;;3.13;1.65;;;;;;;;;;5073574;28;20036;-58
2021/10/15 17:50:51;;;;;;;3.28;2.33;;;;;;;;;;5074321;28;20017;-58
2021/10/15 17:53:46;;;;;;;4.72;1.90;;;;;;;;;;5074276;28;20020;-58
2021/10/15 18:02:15;;;;;;;2.67;2.42;;;;;;;;;;5061015;28;20028;-58
2021/10/15 18:08:09;;;;;;;3.50;1.92;;;;;;;;;;5021248;28;20067;-58
2021/10/15 18:10:51;;;;;;;;;;;;;;;;;;;;;
2021/10/15 18:13:20;;;;;;;4.82;3.38;;;;;;;;;;5069126;28;20041;-58
2021/10/15 18:16:14;;;;;;;7.15;4.60;;;;;;;;;;5073987;28;20028;-58
2021/10/15 18:18:48;;;;;;;5.70;3.75;;;;;;;;;;5041822;28;20450;-58
2021/10/15 18:21:26;;;;;;;3.78;2.83;;;;;;;;;;5054397;28;20024;-58
2021/10/15 18:23:55;;;;;;;7.95;4.03;;;;;;;;;;5055072;28;20567;-58
2021/10/15 18:26:38;;;;;;;3.95;3.30;;;;;;;;;;5053467;28;20087;-59
2021/10/15 18:29:04;;;;;;;6.22;3.45;;;;;;;;;;5054723;28;20478;-58
2021/10/15 18:31:42;;;;;;;9.63;3.28;;;;;;;;;;5072956;28;20050;-58
2021/10/15 18:37:38;;;;;;;4.68;2.90;;;;;;;;;;5084481;28;20040;-59
2021/10/15 18:40:28;;;;;;;;;;;;;;;;;;;;;
2021/10/15 18:46:08;;;;;;;6.75;4.50;;;;;;;;;;5069510;28;20033;-57
2021/10/15 18:51:47;;;;;;;5.90;4.53;;;;;;;;;;5070848;28;20547;-57
2021/10/15 18:54:37;;;;;;;7.47;4.97;;;;;;;;;;5087724;28;20029;-59
2021/10/15 18:57:27;;;;;;;12.35;6.43;;;;;;;;;;5069405;28;20120;-59
2021/10/15 19:02:57;;;;;;;7.55;5.47;;;;;;;;;;5043885;28;20032;-59
2021/10/15 19:05:46;;;;;;;7.93;5.78;;;;;;;;;;5047006;28;20045;-57
2021/10/15 19:11:40;;;;;;;7.43;5.60;;;;;;;;;;5047860;28;20040;-59
2021/10/15 19:17:10;;;;;;;5.03;3.50;;;;;;;;;;5062989;28;20154;-58
2021/10/15 19:20:15;;;;;;;6.90;3.42;;;;;;;;;;5067401;28;20036;-58
2021/10/15 19:23:26;;;;;;;5.00;3.40;;;;;;;;;;5071654;28;20105;-58
2021/10/15 19:26:10;;;;;;;;;;;;;;;;;;;;;
2021/10/15 19:29:02;;;;;;;4.30;2.92;;;;;;;;;;5068797;28;20465;-58
2021/10/15 19:31:41;;;;;;;;;;;;;;;;;;;;;
2021/10/15 19:37:21;;;;;;;4.57;2.15;;;;;;;;;;5062469;28;20036;-58
2021/10/15 19:40:19;;;;;;;;;;;;;;;;;;;;;
2021/10/15 19:46:08;;;;;;;4.00;2.65;;;;;;;;;;5072404;28;20031;-59
2021/10/15 19:48:54;;;;;;;5.25;3.58;;;;;;;;;;5054382;28;20039;-59
2021/10/15 19:52:05;;;;;;;;;;;;;;;;;;;;;
2021/10/15 19:54:56;;;;;;;4.20;2.92;;;;;;;;;;5072342;28;20381;-58
2021/10/15 19:57:59;;;;;;;5.20;2.78;;;;;;;;;;5071274;28;20481;-59
2021/10/15 20:00:37;;;;;;;4.57;3.10;;;;;;;;;;5051630;28;20521;-59
2021/10/15 20:03:10;;;;;;;5.05;3.90;;;;;;;;;;5068991;28;20040;-59
2021/10/15 20:06:01;;;;;;;4.88;2.95;;;;;;;;;;5071938;28;20044;-59
2021/10/15 20:08:27;;;;;;;;;;;;;;;;;;5071440;28;20055;-59
2021/10/15 20:11:07;;;;;;;5.55;2.90;;;;;;;;;;5052669;28;19947;-60
2021/10/15 20:13:53;;;;;;;5.57;2.77;;;;;;;;;;5053604;28;20461;-58
2021/10/15 20:19:18;;;;;;;4.38;2.78;;;;;;;;;;5054359;28;20033;-58
2021/10/15 20:22:27;;;;;;;4.43;2.72;;;;;;;;;;5071763;28;20039;-59
2021/10/15 20:25:14;;;;;;;4.50;3.15;;;;;;;;;;4989038;28;20052;-60
2021/10/15 20:27:49;;;;;;;7.85;3.95;;;;;;;;;;4977829;28;20514;-58
2021/10/15 20:30:32;;;;;;;5.07;3.47;;;;;;;;;;4990049;28;20129;-58
2021/10/15 20:33:11;;;;;;;4.60;3.63;;;;;;;;;;4998176;28;20141;-58
2021/10/15 20:35:55;;;;;;;6.75;4.80;;;;;;;;;;5072491;28;20028;-58
2021/10/15 20:38:46;;;;;;;10.52;5.20;;;;;;;;;;5086090;28;20482;-58
2021/10/15 20:41:34;;;;;;;10.93;6.95;;;;;;;;;;5086591;28;20104;-58
2021/10/15 20:44:34;;;;;;;;;;;;;;;;;;;;;
2021/10/15 20:47:27;;;;;;;14.10;6.15;;;;;;;;;;5068111;28;20041;-59
2021/10/15 20:53:32;;;;;;;12.63;6.20;;;;;;;;;;5071612;28;20547;-59
2021/10/15 20:56:20;;;;;;;11.00;6.47;;;;;;;;;;5041690;28;20074;-59
2021/10/15 20:59:10;;;;;;;7.38;5.68;;;;;;;;;;5071033;28;20494;-59
2021/10/15 21:01:39;;;;;;;9.02;5.47;;;;;;;;;;5075042;28;20025;-59
2021/10/15 21:04:44;;;;;;;9.20;6.28;;;;;;;;;;5092658;28;20044;-59
2021/10/15 21:07:32;;;;;;;6.30;4.35;;;;;;;;;;5043046;28;20040;-59
2021/10/15 21:10:40;;;;;;;6.30;5.40;;;;;;;;;;5077291;28;20033;-59
2021/10/15 21:13:16;;;;;;;5.75;4.65;;;;;;;;;;5061611;28;20047;-59
2021/10/15 21:16:14;;;;;;;9.10;5.90;;;;;;;;;;5075502;28;20036;-58
2021/10/15 21:19:09;;;;;;;5.63;4.80;;;;;;;;;;5074620;28;20043;-59
2021/10/15 21:21:55;;;;;;;;;;;;;;;;;;;;;
2021/10/15 21:24:43;;;;;;;8.52;5.15;;;;;;;;;;5073742;28;20449;-58
2021/10/15 21:27:36;;;;;;;5.35;4.05;;;;;;;;;;5079922;28;20017;-59
2021/10/15 21:30:18;;;;;;;5.22;4.00;;;;;;;;;;5079932;28;20045;-58
2021/10/15 21:36:15;;;;;;;5.78;4.18;;;;;;;;;;5055666;28;20083;-58
2021/10/15 21:39:20;;;;;;;8.13;4.38;;;;;;;;;;5074266;28;20048;-58
2021/10/15 21:41:56;;;;;;;5.53;3.78;;;;;;;;;;5059493;28;20035;-58
2021/10/15 21:50:29;;;;;;;;;;;;;;;;;;;;;
2021/10/15 21:53:17;;;;;;;5.28;4.28;;;;;;;;;;5059462;28;20108;-58
2021/10/15 21:56:13;;;;;;;7.72;5.13;;;;;;;;;;5073481;28;20052;-59
2021/10/15 21:58:45;;;;;;;8.82;6.80;;;;;;;;;;5058872;28;20044;-58
2021/10/15 22:04:39;;;;;;;10.88;5.53;;;;;;;;;;5014945;28;20127;-58
2021/10/15 22:07:16;;;;;;;6.90;4.78;;;;;;;;;;5058635;28;20474;-57